Time;durP1;ratioP1;P1;durP2;ratioP2;P2;SDS_P1;SDS_P2;PMS_P1;PMS_P2;Temp;Humidity;BMP_temperature;BMP_pressure;BME280_temperature;BME280_humidity;BME280_pressure;Samples;Min_cycle;Max_cycle;Signal;HPM_P1;HPM_P2
2023/08/20 00:01:47;;;;;;;17.23;5.68;;;;;;;;;;4989768;28;100168;-81
2023/08/20 00:04:14;;;;;;;13.20;5.57;;;;;;;;;;4984795;28;99731;-82
2023/08/20 00:06:42;;;;;;;16.52;5.55;;;;;;;;;;4987561;28;98594;-81
2023/08/20 00:09:09;;;;;;;13.63;4.75;;;;;;;;;;4985248;28;99376;-82
2023/08/20 00:11:36;;;;;;;17.17;5.32;;;;;;;;;;4985897;28;99472;-82
2023/08/20 00:14:02;;;;;;;11.55;4.57;;;;;;;;;;5003429;28;99142;-77
2023/08/20 00:16:29;;;;;;;14.88;5.20;;;;;;;;;;4990192;28;99639;-78
2023/08/20 00:18:55;;;;;;;14.77;5.28;;;;;;;;;;4987814;28;98586;-79
2023/08/20 00:21:22;;;;;;;18.50;5.70;;;;;;;;;;4990142;28;99231;-77
2023/08/20 00:23:49;;;;;;;15.77;5.38;;;;;;;;;;4981152;28;100227;-83
2023/08/20 00:26:15;;;;;;;14.13;5.07;;;;;;;;;;4991780;28;98566;-80
2023/08/20 00:28:42;;;;;;;16.63;5.32;;;;;;;;;;4999083;28;99444;-81
2023/08/20 00:31:08;;;;;;;10.10;4.88;;;;;;;;;;4988906;28;99298;-78
2023/08/20 00:33:35;;;;;;;18.30;5.30;;;;;;;;;;4989718;28;98557;-79
2023/08/20 00:36:01;;;;;;;15.90;5.50;;;;;;;;;;4990896;28;99781;-79
2023/08/20 00:38:28;;;;;;;11.07;5.18;;;;;;;;;;4991529;28;98541;-79
2023/08/20 00:40:54;;;;;;;16.20;5.45;;;;;;;;;;5002354;28;99433;-79
2023/08/20 00:43:21;;;;;;;10.25;5.70;;;;;;;;;;4990190;28;99357;-79
2023/08/20 00:45:47;;;;;;;10.00;5.30;;;;;;;;;;4993021;28;98628;-80
2023/08/20 00:48:15;;;;;;;15.63;5.88;;;;;;;;;;4995599;28;99418;-77
2023/08/20 00:50:41;;;;;;;16.77;6.32;;;;;;;;;;4990054;28;99655;-77
2023/08/20 00:53:11;;;;;;;12.80;5.85;;;;;;;;;;4991110;28;98795;-78
2023/08/20 00:55:37;;;;;;;15.23;5.60;;;;;;;;;;4992264;28;99864;-77
2023/08/20 00:58:04;;;;;;;14.68;5.35;;;;;;;;;;4987287;28;99049;-78
2023/08/20 01:00:31;;;;;;;14.45;5.80;;;;;;;;;;4990133;28;99284;-78
2023/08/20 01:02:58;;;;;;;18.90;6.15;;;;;;;;;;4988219;28;99472;-77
2023/08/20 01:05:24;;;;;;;13.88;5.65;;;;;;;;;;4989161;28;98051;-77
2023/08/20 01:08:00;;;;;;;13.55;5.20;;;;;;;;;;4987383;28;99241;-77
2023/08/20 01:10:29;;;;;;;18.63;5.15;;;;;;;;;;4981566;28;99515;-78
2023/08/20 01:12:56;;;;;;;10.70;5.00;;;;;;;;;;4987913;28;99275;-81
2023/08/20 01:15:23;;;;;;;18.65;5.20;;;;;;;;;;4989484;28;100031;-78
2023/08/20 01:17:50;;;;;;;9.77;4.93;;;;;;;;;;4990008;28;98683;-79
2023/08/20 01:20:16;;;;;;;12.05;4.95;;;;;;;;;;4996888;28;99326;-79
2023/08/20 01:22:55;;;;;;;16.63;5.05;;;;;;;;;;4991339;28;101410;-79
2023/08/20 01:25:39;;;;;;;20.88;5.32;;;;;;;;;;4987689;28;98531;-78
2023/08/20 01:28:18;;;;;;;14.63;4.55;;;;;;;;;;4992349;28;98968;-77
2023/08/20 01:30:45;;;;;;;11.07;5.05;;;;;;;;;;4986475;28;98864;-76
2023/08/20 01:33:12;;;;;;;15.30;5.05;;;;;;;;;;4987052;28;98531;-76
2023/08/20 01:35:39;;;;;;;17.33;4.88;;;;;;;;;;4988702;28;99668;-76
2023/08/20 01:38:05;;;;;;;10.90;4.50;;;;;;;;;;4990646;28;100146;-76
2023/08/20 01:40:31;;;;;;;13.43;4.43;;;;;;;;;;4988961;28;100626;-81
2023/08/20 01:42:58;;;;;;;16.17;4.95;;;;;;;;;;4988363;28;99376;-77
2023/08/20 01:45:25;;;;;;;15.52;5.25;;;;;;;;;;4983227;28;98889;-75
2023/08/20 01:47:52;;;;;;;12.82;4.82;;;;;;;;;;4983490;28;99696;-76
2023/08/20 01:50:18;;;;;;;14.02;5.15;;;;;;;;;;4993033;28;99407;-75
2023/08/20 01:52:45;;;;;;;10.10;4.45;;;;;;;;;;4980273;28;101286;-75
2023/08/20 01:55:11;;;;;;;11.88;4.45;;;;;;;;;;4987867;28;99539;-76
2023/08/20 01:57:38;;;;;;;13.98;4.93;;;;;;;;;;4984912;28;99647;-76
2023/08/20 02:00:05;;;;;;;8.38;4.43;;;;;;;;;;4997262;28;98704;-76
2023/08/20 02:02:32;;;;;;;8.07;4.13;;;;;;;;;;4984674;28;101170;-76
2023/08/20 02:04:58;;;;;;;10.85;4.20;;;;;;;;;;4990805;28;99036;-79
2023/08/20 02:07:25;;;;;;;12.35;4.15;;;;;;;;;;4987455;28;100493;-80
2023/08/20 02:09:51;;;;;;;10.32;4.60;;;;;;;;;;4987974;28;99494;-79
2023/08/20 02:12:18;;;;;;;9.07;4.55;;;;;;;;;;4989949;28;98910;-80
2023/08/20 02:14:44;;;;;;;13.43;4.47;;;;;;;;;;4991830;28;98683;-79
2023/08/20 02:17:12;;;;;;;11.13;4.38;;;;;;;;;;4990297;28;99291;-79
2023/08/20 02:19:38;;;;;;;12.68;4.70;;;;;;;;;;4996887;28;97891;-80
2023/08/20 02:22:05;;;;;;;9.70;4.32;;;;;;;;;;4994197;28;98792;-80
2023/08/20 02:24:31;;;;;;;11.98;4.78;;;;;;;;;;4994396;28;100399;-79
2023/08/20 02:26:58;;;;;;;9.15;4.35;;;;;;;;;;4994195;28;99454;-76
2023/08/20 02:29:24;;;;;;;16.90;4.57;;;;;;;;;;4995365;28;99555;-80
2023/08/20 02:31:50;;;;;;;11.95;4.43;;;;;;;;;;4989282;28;98613;-79
2023/08/20 02:34:17;;;;;;;8.50;4.05;;;;;;;;;;4993485;28;99267;-78
2023/08/20 02:36:43;;;;;;;9.27;4.20;;;;;;;;;;4999122;28;99951;-78
2023/08/20 02:39:10;;;;;;;9.13;4.68;;;;;;;;;;4990957;28;98596;-77
2023/08/20 02:41:36;;;;;;;10.60;4.53;;;;;;;;;;4994615;28;99070;-77
2023/08/20 02:44:03;;;;;;;14.98;4.70;;;;;;;;;;4998440;28;98743;-78
2023/08/20 02:46:30;;;;;;;13.70;5.38;;;;;;;;;;4996611;28;98844;-78
2023/08/20 02:48:56;;;;;;;9.05;5.13;;;;;;;;;;4996785;28;100026;-76
2023/08/20 02:51:23;;;;;;;12.90;5.30;;;;;;;;;;4987823;28;99484;-76
2023/08/20 02:53:49;;;;;;;14.05;4.97;;;;;;;;;;4995778;28;100942;-75
2023/08/20 02:56:15;;;;;;;15.13;5.65;;;;;;;;;;4990949;28;99463;-76
2023/08/20 02:58:42;;;;;;;12.65;5.45;;;;;;;;;;4990179;28;99995;-76
2023/08/20 03:01:17;;;;;;;12.93;5.10;;;;;;;;;;4983466;28;101155;-75
2023/08/20 03:03:44;;;;;;;11.55;6.15;;;;;;;;;;4992009;28;99848;-79
2023/08/20 03:06:10;;;;;;;14.20;6.60;;;;;;;;;;4998918;28;100306;-79
2023/08/20 03:08:36;;;;;;;11.32;5.50;;;;;;;;;;4990152;28;100273;-77
2023/08/20 03:11:03;;;;;;;14.02;6.28;;;;;;;;;;4993509;28;98632;-77
2023/08/20 03:13:29;;;;;;;19.02;6.10;;;;;;;;;;4987557;28;99581;-75
2023/08/20 03:15:55;;;;;;;12.13;5.13;;;;;;;;;;4991610;28;103399;-77
2023/08/20 03:18:22;;;;;;;14.30;5.40;;;;;;;;;;4985830;28;98669;-78
2023/08/20 03:20:48;;;;;;;13.18;5.35;;;;;;;;;;4988269;28;99185;-77
2023/08/20 03:23:15;;;;;;;15.05;5.53;;;;;;;;;;4980340;28;99500;-78
2023/08/20 03:25:41;;;;;;;17.42;5.13;;;;;;;;;;4999280;28;98601;-77
2023/08/20 03:28:07;;;;;;;11.82;5.45;;;;;;;;;;4998640;28;99438;-76
2023/08/20 03:30:36;;;;;;;9.98;4.63;;;;;;;;;;4989633;28;98541;-77
2023/08/20 03:33:02;;;;;;;11.32;4.78;;;;;;;;;;4985957;28;99306;-78
2023/08/20 03:35:29;;;;;;;18.20;6.20;;;;;;;;;;4990890;28;100748;-78
2023/08/20 03:37:55;;;;;;;9.32;4.63;;;;;;;;;;4993414;28;98594;-75
2023/08/20 03:40:21;;;;;;;6.72;4.13;;;;;;;;;;4984463;28;99347;-75
2023/08/20 03:42:48;;;;;;;12.02;4.90;;;;;;;;;;4986236;28;99467;-76
2023/08/20 03:45:14;;;;;;;16.67;5.28;;;;;;;;;;4993312;28;98572;-75
2023/08/20 03:47:43;;;;;;;10.38;4.68;;;;;;;;;;4999354;28;98768;-75
2023/08/20 03:50:10;;;;;;;15.03;4.30;;;;;;;;;;4998849;28;98679;-75
2023/08/20 03:52:37;;;;;;;15.32;4.30;;;;;;;;;;4988662;28;99204;-74
2023/08/20 03:55:03;;;;;;;8.13;4.40;;;;;;;;;;4988584;28;99820;-74
2023/08/20 03:57:29;;;;;;;7.35;4.30;;;;;;;;;;4995258;28;97809;-73
2023/08/20 03:59:56;;;;;;;12.65;4.97;;;;;;;;;;4991228;28;99958;-75
2023/08/20 04:02:23;;;;;;;12.57;4.78;;;;;;;;;;4990195;28;99865;-75
2023/08/20 04:04:49;;;;;;;9.32;4.47;;;;;;;;;;4990255;28;99292;-74
2023/08/20 04:07:17;;;;;;;10.73;4.55;;;;;;;;;;4989324;28;99890;-75
2023/08/20 04:09:44;;;;;;;9.18;4.57;;;;;;;;;;4990581;28;99571;-75
2023/08/20 04:12:10;;;;;;;10.63;4.35;;;;;;;;;;4989672;28;99992;-74
2023/08/20 04:14:36;;;;;;;10.05;4.00;;;;;;;;;;4994174;28;100504;-74
2023/08/20 04:17:03;;;;;;;11.38;4.22;;;;;;;;;;4992195;28;99016;-77
2023/08/20 04:19:29;;;;;;;11.25;4.45;;;;;;;;;;4995662;28;99212;-77
2023/08/20 04:21:56;;;;;;;15.30;4.70;;;;;;;;;;4994108;28;98851;-77
2023/08/20 04:24:22;;;;;;;12.02;4.13;;;;;;;;;;4989670;28;98550;-76
2023/08/20 04:26:48;;;;;;;10.02;4.20;;;;;;;;;;4992295;28;99220;-77
2023/08/20 04:29:15;;;;;;;10.68;3.90;;;;;;;;;;4993948;28;100583;-78
2023/08/20 04:31:41;;;;;;;8.82;4.30;;;;;;;;;;4990080;28;98707;-73
2023/08/20 04:34:08;;;;;;;8.73;4.03;;;;;;;;;;4995194;28;99402;-77
2023/08/20 04:36:34;;;;;;;9.82;4.30;;;;;;;;;;4992125;28;98547;-77
2023/08/20 04:39:01;;;;;;;9.02;4.38;;;;;;;;;;4996536;28;99134;-77
2023/08/20 04:41:27;;;;;;;5.60;3.67;;;;;;;;;;4989748;28;99556;-74
2023/08/20 04:43:54;;;;;;;13.80;4.57;;;;;;;;;;4993893;28;99021;-73
2023/08/20 04:46:20;;;;;;;7.40;4.15;;;;;;;;;;4988372;28;99220;-74
2023/08/20 04:48:47;;;;;;;11.75;3.88;;;;;;;;;;4990773;28;99695;-74
2023/08/20 04:51:13;;;;;;;10.52;4.43;;;;;;;;;;4995734;28;98661;-76
2023/08/20 04:53:40;;;;;;;6.15;4.07;;;;;;;;;;5000559;28;99492;-75
2023/08/20 04:56:06;;;;;;;8.18;4.22;;;;;;;;;;4985559;28;98523;-77
2023/08/20 04:58:33;;;;;;;9.43;4.45;;;;;;;;;;4985718;28;100865;-78
2023/08/20 05:00:59;;;;;;;10.18;3.70;;;;;;;;;;4984498;28;99489;-79
2023/08/20 05:03:26;;;;;;;8.02;3.85;;;;;;;;;;4998949;28;98549;-79
2023/08/20 05:05:52;;;;;;;7.10;4.07;;;;;;;;;;4994605;28;99178;-80
2023/08/20 05:08:19;;;;;;;12.30;4.47;;;;;;;;;;4993424;28;99497;-81
2023/08/20 05:10:45;;;;;;;10.45;3.58;;;;;;;;;;4992621;28;97881;-81
2023/08/20 05:13:11;;;;;;;10.43;4.47;;;;;;;;;;4997271;28;98643;-81
2023/08/20 05:15:38;;;;;;;10.73;4.28;;;;;;;;;;4986187;28;99451;-81
2023/08/20 05:18:04;;;;;;;7.97;3.85;;;;;;;;;;4994034;28;99206;-81
2023/08/20 05:20:31;;;;;;;8.65;4.07;;;;;;;;;;4997002;28;99561;-81
2023/08/20 05:22:57;;;;;;;8.23;3.85;;;;;;;;;;4987948;28;99227;-80
2023/08/20 05:25:24;;;;;;;12.85;4.88;;;;;;;;;;4988180;28;102642;-80
2023/08/20 05:27:50;;;;;;;12.27;4.18;;;;;;;;;;4981453;28;99466;-81
2023/08/20 05:30:16;;;;;;;10.40;4.30;;;;;;;;;;4983844;28;98662;-80
2023/08/20 05:32:43;;;;;;;13.90;4.60;;;;;;;;;;4986883;28;99524;-81
2023/08/20 05:35:10;;;;;;;8.07;4.53;;;;;;;;;;4996421;28;98859;-80
2023/08/20 05:37:36;;;;;;;10.77;4.50;;;;;;;;;;4995159;28;98406;-81
2023/08/20 05:40:03;;;;;;;9.20;4.25;;;;;;;;;;4987217;28;99630;-80
2023/08/20 05:42:30;;;;;;;12.63;5.00;;;;;;;;;;4984116;28;99800;-81
2023/08/20 05:44:56;;;;;;;11.45;4.07;;;;;;;;;;4990680;28;99999;-81
2023/08/20 05:47:22;;;;;;;11.55;3.97;;;;;;;;;;4988152;28;99483;-81
2023/08/20 05:49:49;;;;;;;9.60;3.92;;;;;;;;;;4993804;28;98663;-77
2023/08/20 05:52:15;;;;;;;7.95;3.78;;;;;;;;;;4994756;28;99354;-80
2023/08/20 05:54:42;;;;;;;11.77;3.90;;;;;;;;;;4990110;28;99324;-81
2023/08/20 05:57:08;;;;;;;8.95;4.50;;;;;;;;;;4990412;28;99583;-80
2023/08/20 05:59:34;;;;;;;20.15;6.03;;;;;;;;;;4986099;28;98746;-81
2023/08/20 06:02:02;;;;;;;17.77;5.10;;;;;;;;;;4995697;28;100005;-81
2023/08/20 06:04:29;;;;;;;21.73;6.13;;;;;;;;;;4988406;28;99410;-81
2023/08/20 06:06:55;;;;;;;17.95;5.60;;;;;;;;;;4990875;28;100247;-81
2023/08/20 06:09:22;;;;;;;20.42;5.40;;;;;;;;;;4991340;28;98573;-81
2023/08/20 06:11:49;;;;;;;20.17;4.82;;;;;;;;;;4990135;28;98629;-81
2023/08/20 06:14:15;;;;;;;19.92;4.90;;;;;;;;;;4995094;28;100428;-81
2023/08/20 06:16:41;;;;;;;14.77;4.93;;;;;;;;;;4990298;28;100546;-81
2023/08/20 06:19:08;;;;;;;12.73;4.68;;;;;;;;;;4986274;28;99677;-81
2023/08/20 06:21:34;;;;;;;13.07;4.68;;;;;;;;;;4984223;28;98915;-81
2023/08/20 06:24:01;;;;;;;16.13;4.97;;;;;;;;;;4988707;28;99201;-81
2023/08/20 06:26:27;;;;;;;11.55;4.32;;;;;;;;;;4986875;28;99530;-81
2023/08/20 06:28:53;;;;;;;15.52;4.63;;;;;;;;;;4997818;28;98497;-81
2023/08/20 06:31:20;;;;;;;17.15;4.75;;;;;;;;;;4992583;28;99769;-80
2023/08/20 06:33:47;;;;;;;17.02;3.67;;;;;;;;;;4994502;28;99607;-80
2023/08/20 06:36:13;;;;;;;20.40;3.97;;;;;;;;;;4989886;28;98539;-80
2023/08/20 06:38:39;;;;;;;15.80;3.78;;;;;;;;;;4993227;28;99327;-81
2023/08/20 06:41:06;;;;;;;14.38;3.22;;;;;;;;;;4992698;28;99500;-81
2023/08/20 06:43:32;;;;;;;19.50;4.00;;;;;;;;;;4991164;28;99161;-81
2023/08/20 06:45:59;;;;;;;16.27;3.42;;;;;;;;;;4988286;28;99468;-76
2023/08/20 06:48:26;;;;;;;19.73;3.53;;;;;;;;;;4997169;28;97790;-76
2023/08/20 06:50:53;;;;;;;16.23;3.58;;;;;;;;;;4990591;28;99986;-76
2023/08/20 06:53:19;;;;;;;14.25;3.60;;;;;;;;;;4988720;28;99478;-76
2023/08/20 06:55:45;;;;;;;17.17;3.63;;;;;;;;;;4988512;28;99269;-77
2023/08/20 06:58:12;;;;;;;17.30;3.17;;;;;;;;;;4985184;28;102103;-77
2023/08/20 07:00:38;;;;;;;12.80;3.13;;;;;;;;;;4987712;28;99284;-76
2023/08/20 07:03:05;;;;;;;15.35;2.72;;;;;;;;;;4989760;28;98775;-77
2023/08/20 07:05:31;;;;;;;13.35;2.70;;;;;;;;;;4987626;28;101123;-77
2023/08/20 07:07:58;;;;;;;17.67;3.05;;;;;;;;;;4987226;28;99102;-77
2023/08/20 07:10:24;;;;;;;22.35;3.22;;;;;;;;;;4987794;28;100251;-77
2023/08/20 07:12:50;;;;;;;19.13;3.28;;;;;;;;;;4987800;28;100469;-76
2023/08/20 07:15:17;;;;;;;19.58;2.95;;;;;;;;;;4988746;28;98591;-77
2023/08/20 07:17:43;;;;;;;15.93;2.85;;;;;;;;;;4992361;28;100418;-74
2023/08/20 07:20:11;;;;;;;18.02;3.58;;;;;;;;;;4981350;28;100298;-74
2023/08/20 07:22:38;;;;;;;18.55;3.33;;;;;;;;;;4990723;28;98626;-74
2023/08/20 07:25:05;;;;;;;13.75;3.15;;;;;;;;;;4988196;28;99849;-74
2023/08/20 07:27:31;;;;;;;10.43;2.42;;;;;;;;;;4990046;28;99141;-74
2023/08/20 07:29:57;;;;;;;16.83;2.80;;;;;;;;;;4984204;28;99224;-75
2023/08/20 07:32:24;;;;;;;12.77;2.22;;;;;;;;;;4987510;28;99507;-75
2023/08/20 07:34:50;;;;;;;9.88;2.50;;;;;;;;;;4992640;28;98871;-76
2023/08/20 07:37:17;;;;;;;9.68;2.03;;;;;;;;;;4986653;28;99419;-75
2023/08/20 07:39:44;;;;;;;9.32;2.40;;;;;;;;;;4988783;28;100123;-76
2023/08/20 07:42:12;;;;;;;13.30;3.25;;;;;;;;;;4986703;28;99104;-75
2023/08/20 07:44:38;;;;;;;20.63;2.65;;;;;;;;;;4982316;28;99474;-74
2023/08/20 07:47:05;;;;;;;17.52;2.80;;;;;;;;;;4987468;28;98607;-74
2023/08/20 07:49:31;;;;;;;10.00;2.42;;;;;;;;;;4991962;28;99174;-75
2023/08/20 07:51:57;;;;;;;12.93;2.17;;;;;;;;;;4994504;28;99433;-75
2023/08/20 07:54:24;;;;;;;14.45;2.55;;;;;;;;;;4983173;28;98642;-75
2023/08/20 07:56:50;;;;;;;13.50;2.10;;;;;;;;;;4987362;28;98636;-75
2023/08/20 07:59:16;;;;;;;15.20;2.63;;;;;;;;;;4984758;28;99416;-75
2023/08/20 08:01:43;;;;;;;11.18;2.22;;;;;;;;;;4994159;28;97920;-76
2023/08/20 08:04:09;;;;;;;13.32;2.83;;;;;;;;;;4984827;28;98938;-76
2023/08/20 08:06:36;;;;;;;17.83;2.67;;;;;;;;;;4982413;28;99694;-75
2023/08/20 08:09:34;;;;;;;8.30;1.90;;;;;;;;;;4997838;28;99422;-76
2023/08/20 08:12:01;;;;;;;16.30;2.72;;;;;;;;;;4972966;28;99831;-75
2023/08/20 08:14:28;;;;;;;12.45;2.50;;;;;;;;;;4981627;28;98615;-75
2023/08/20 08:16:54;;;;;;;10.40;2.30;;;;;;;;;;4989219;28;99495;-75
2023/08/20 08:19:21;;;;;;;7.82;1.85;;;;;;;;;;4986412;28;100012;-75
2023/08/20 08:21:47;;;;;;;11.52;2.03;;;;;;;;;;4996037;28;98866;-74
2023/08/20 08:24:14;;;;;;;6.43;1.77;;;;;;;;;;4982118;28;99684;-74
2023/08/20 08:26:40;;;;;;;10.15;1.77;;;;;;;;;;4991663;28;97711;-74
2023/08/20 08:29:07;;;;;;;10.10;1.80;;;;;;;;;;4991236;28;98667;-74
2023/08/20 08:31:34;;;;;;;10.27;2.15;;;;;;;;;;4984959;28;99368;-74
2023/08/20 08:34:03;;;;;;;12.65;2.08;;;;;;;;;;4989643;28;99806;-74
2023/08/20 08:36:29;;;;;;;6.68;1.67;;;;;;;;;;4987971;28;100183;-74
2023/08/20 08:38:55;;;;;;;15.18;2.50;;;;;;;;;;4991419;28;99794;-74
2023/08/20 08:41:25;;;;;;;11.10;2.13;;;;;;;;;;4991773;28;98550;-74
2023/08/20 08:43:53;;;;;;;11.60;1.90;;;;;;;;;;4988800;28;99202;-74
2023/08/20 08:46:20;;;;;;;10.10;1.65;;;;;;;;;;4990006;28;100674;-74
2023/08/20 08:48:47;;;;;;;8.70;1.90;;;;;;;;;;4990934;28;98588;-74
2023/08/20 08:51:13;;;;;;;10.13;2.60;;;;;;;;;;4987885;28;99168;-74
2023/08/20 08:53:46;;;;;;;7.75;1.63;;;;;;;;;;4985404;28;99379;-74
2023/08/20 08:56:12;;;;;;;9.68;2.28;;;;;;;;;;4990944;28;99147;-74
2023/08/20 08:58:39;;;;;;;5.18;1.45;;;;;;;;;;4996396;28;100388;-74
2023/08/20 09:01:05;;;;;;;8.55;1.40;;;;;;;;;;4985694;28;98729;-74
2023/08/20 09:03:32;;;;;;;8.63;1.90;;;;;;;;;;4987439;28;99182;-74
2023/08/20 09:06:03;;;;;;;7.78;1.70;;;;;;;;;;4991920;28;99494;-74
2023/08/20 09:08:30;;;;;;;10.40;2.08;;;;;;;;;;4990762;28;98643;-74
2023/08/20 09:10:57;;;;;;;6.55;1.58;;;;;;;;;;4989058;28;98603;-74
2023/08/20 09:13:25;;;;;;;8.32;1.75;;;;;;;;;;4983520;28;98566;-74
2023/08/20 09:15:52;;;;;;;6.43;1.55;;;;;;;;;;4988065;28;99238;-73
2023/08/20 09:18:19;;;;;;;8.85;1.65;;;;;;;;;;4993507;28;99458;-74
2023/08/20 09:20:47;;;;;;;8.95;1.58;;;;;;;;;;4986446;28;98663;-74
2023/08/20 09:23:13;;;;;;;14.10;2.20;;;;;;;;;;4988252;28;99249;-74
2023/08/20 09:25:40;;;;;;;9.40;2.05;;;;;;;;;;4986099;28;99528;-74
2023/08/20 09:28:07;;;;;;;11.05;1.85;;;;;;;;;;4985835;28;99010;-74
2023/08/20 09:30:34;;;;;;;16.52;3.40;;;;;;;;;;4990391;28;99507;-74
2023/08/20 09:33:03;;;;;;;5.97;1.63;;;;;;;;;;4992703;28;100206;-74
2023/08/20 09:35:30;;;;;;;8.67;1.77;;;;;;;;;;4987341;28;100147;-74
2023/08/20 09:38:05;;;;;;;8.60;1.73;;;;;;;;;;4990230;28;99518;-76
2023/08/20 09:40:32;;;;;;;14.80;2.83;;;;;;;;;;4989137;28;98239;-76
2023/08/20 09:42:59;;;;;;;10.00;1.65;;;;;;;;;;4989082;28;99310;-76
2023/08/20 09:45:27;;;;;;;7.47;1.42;;;;;;;;;;4983010;28;100427;-76
2023/08/20 09:47:54;;;;;;;3.25;0.98;;;;;;;;;;4989240;28;99278;-76
2023/08/20 09:50:21;;;;;;;2.58;1.08;;;;;;;;;;4983729;28;99873;-76
2023/08/20 09:52:55;;;;;;;4.63;1.30;;;;;;;;;;4988810;28;100006;-76
2023/08/20 09:55:22;;;;;;;12.48;1.65;;;;;;;;;;4989410;28;98601;-76
2023/08/20 09:57:49;;;;;;;8.50;1.77;;;;;;;;;;4987413;28;99875;-76
2023/08/20 10:00:15;;;;;;;8.75;1.45;;;;;;;;;;4993537;28;98957;-76
2023/08/20 10:02:42;;;;;;;4.38;1.30;;;;;;;;;;4989931;28;99239;-76
2023/08/20 10:05:10;;;;;;;8.40;1.67;;;;;;;;;;4987383;28;98743;-76
2023/08/20 10:07:36;;;;;;;6.32;1.10;;;;;;;;;;4991326;28;98510;-75
2023/08/20 10:10:05;;;;;;;5.55;1.40;;;;;;;;;;4988756;28;99127;-76
2023/08/20 10:12:31;;;;;;;13.45;2.35;;;;;;;;;;4987471;28;102392;-76
2023/08/20 10:14:59;;;;;;;8.25;1.60;;;;;;;;;;4988382;28;98983;-76
2023/08/20 10:17:25;;;;;;;6.30;1.63;;;;;;;;;;4990450;28;98733;-76
2023/08/20 10:19:52;;;;;;;5.80;1.38;;;;;;;;;;4985963;28;99111;-76
2023/08/20 10:22:19;;;;;;;8.00;1.77;;;;;;;;;;4990092;28;99124;-75
2023/08/20 10:24:51;;;;;;;6.47;1.25;;;;;;;;;;4988083;28;99526;-76
2023/08/20 10:27:26;;;;;;;7.35;3.65;;;;;;;;;;4991687;28;98723;-75
2023/08/20 10:29:55;;;;;;;8.30;2.05;;;;;;;;;;4983796;28;99157;-78
2023/08/20 10:32:53;;;;;;;10.55;3.10;;;;;;;;;;4985254;28;99615;-76
2023/08/20 10:35:25;;;;;;;4.47;1.60;;;;;;;;;;4970597;28;99630;-75
2023/08/20 10:38:02;;;;;;;10.00;2.10;;;;;;;;;;4991735;28;99402;-76
2023/08/20 10:40:47;;;;;;;3.50;1.25;;;;;;;;;;4984466;28;99557;-75
2023/08/20 10:43:25;;;;;;;8.63;1.35;;;;;;;;;;4990252;28;100585;-76
2023/08/20 10:46:10;;;;;;;7.38;1.30;;;;;;;;;;4987370;28;100671;-75
2023/08/20 10:48:38;;;;;;;6.05;1.10;;;;;;;;;;4988608;28;99138;-76
2023/08/20 10:51:11;;;;;;;6.72;1.25;;;;;;;;;;4993255;28;99117;-75
2023/08/20 10:53:38;;;;;;;4.85;1.30;;;;;;;;;;4994630;28;99508;-75
2023/08/20 10:56:22;;;;;;;5.90;1.25;;;;;;;;;;4988541;28;97897;-75
2023/08/20 10:58:49;;;;;;;4.88;1.17;;;;;;;;;;4993715;28;98424;-76
2023/08/20 11:01:19;;;;;;;6.43;1.48;;;;;;;;;;4991390;28;99504;-76
2023/08/20 11:03:46;;;;;;;13.43;1.40;;;;;;;;;;4990011;28;99411;-76
2023/08/20 11:06:13;;;;;;;6.20;1.00;;;;;;;;;;4987551;28;99587;-76
2023/08/20 11:08:41;;;;;;;4.25;1.10;;;;;;;;;;4987991;28;100361;-76
2023/08/20 11:11:08;;;;;;;4.07;1.00;;;;;;;;;;4989058;28;99104;-76
2023/08/20 11:13:35;;;;;;;3.92;1.13;;;;;;;;;;4986942;28;100489;-76
2023/08/20 11:16:02;;;;;;;3.92;1.20;;;;;;;;;;4987326;28;98639;-76
2023/08/20 11:18:30;;;;;;;7.95;1.25;;;;;;;;;;4989033;28;99461;-76
2023/08/20 11:20:56;;;;;;;5.47;0.90;;;;;;;;;;4984247;28;98797;-76
2023/08/20 11:23:23;;;;;;;5.72;1.27;;;;;;;;;;4983489;28;98702;-76
2023/08/20 11:25:50;;;;;;;5.10;1.27;;;;;;;;;;4983780;28;100849;-76
2023/08/20 11:28:16;;;;;;;4.88;0.90;;;;;;;;;;4988072;28;99247;-76
2023/08/20 11:30:43;;;;;;;2.25;0.93;;;;;;;;;;4989023;28;99869;-76
2023/08/20 11:33:09;;;;;;;6.85;1.40;;;;;;;;;;4985697;28;98759;-75
2023/08/20 11:35:36;;;;;;;5.90;1.05;;;;;;;;;;4984740;28;98777;-76
2023/08/20 11:38:03;;;;;;;5.82;1.20;;;;;;;;;;4986066;28;99097;-76
2023/08/20 11:40:29;;;;;;;3.67;1.17;;;;;;;;;;4987869;28;102210;-76
2023/08/20 11:42:56;;;;;;;5.85;1.33;;;;;;;;;;4988074;28;98561;-76
2023/08/20 11:45:22;;;;;;;6.57;1.38;;;;;;;;;;4991488;28;99475;-76
2023/08/20 11:47:48;;;;;;;7.72;1.17;;;;;;;;;;4987190;28;98584;-77
2023/08/20 11:50:15;;;;;;;5.45;1.55;;;;;;;;;;4987634;28;99162;-77
2023/08/20 11:52:41;;;;;;;8.02;1.40;;;;;;;;;;4990295;28;100186;-77
2023/08/20 11:55:09;;;;;;;4.28;0.90;;;;;;;;;;4981846;28;98941;-77
2023/08/20 11:57:35;;;;;;;3.53;1.25;;;;;;;;;;4996023;28;99134;-76
2023/08/20 12:00:13;;;;;;;10.32;1.52;;;;;;;;;;4988933;28;99482;-75
2023/08/20 12:02:42;;;;;;;7.18;1.30;;;;;;;;;;4984942;28;98728;-75
2023/08/20 12:05:09;;;;;;;4.47;1.07;;;;;;;;;;4986698;28;99573;-75
2023/08/20 12:07:36;;;;;;;2.83;1.00;;;;;;;;;;4991644;28;99443;-76
2023/08/20 12:10:21;;;;;;;4.22;1.13;;;;;;;;;;4992470;28;99140;-76
2023/08/20 12:12:48;;;;;;;4.85;1.58;;;;;;;;;;4989755;28;99877;-74
2023/08/20 12:15:15;;;;;;;8.55;1.38;;;;;;;;;;4987948;28;98594;-74
2023/08/20 12:17:41;;;;;;;7.10;1.58;;;;;;;;;;4987189;28;99728;-74
2023/08/20 12:20:12;;;;;;;6.65;1.05;;;;;;;;;;4999257;28;99541;-74
2023/08/20 12:22:39;;;;;;;6.82;1.60;;;;;;;;;;4991467;28;98632;-74
2023/08/20 12:25:06;;;;;;;5.43;1.10;;;;;;;;;;4984711;28;99378;-74
2023/08/20 12:27:33;;;;;;;6.43;1.60;;;;;;;;;;4988627;28;99568;-74
2023/08/20 12:30:00;;;;;;;3.45;1.08;;;;;;;;;;4991341;28;98653;-74
2023/08/20 12:32:26;;;;;;;6.78;1.17;;;;;;;;;;4990713;28;99520;-74
2023/08/20 12:34:53;;;;;;;5.30;1.27;;;;;;;;;;4997844;28;101308;-74
2023/08/20 12:37:19;;;;;;;8.95;1.42;;;;;;;;;;4991423;28;98769;-74
2023/08/20 12:39:46;;;;;;;4.55;1.30;;;;;;;;;;4995336;28;102550;-74
2023/08/20 12:42:12;;;;;;;7.95;1.60;;;;;;;;;;4988809;28;99523;-74
2023/08/20 12:44:38;;;;;;;5.80;1.38;;;;;;;;;;4986550;28;99896;-74
2023/08/20 12:47:05;;;;;;;8.85;1.50;;;;;;;;;;4991532;28;99466;-74
2023/08/20 12:49:31;;;;;;;6.35;1.48;;;;;;;;;;4991265;28;98526;-74
2023/08/20 12:51:57;;;;;;;3.08;1.17;;;;;;;;;;4993136;28;99131;-74
2023/08/20 12:54:24;;;;;;;5.63;1.20;;;;;;;;;;4986976;28;98598;-74
2023/08/20 12:56:50;;;;;;;4.20;1.05;;;;;;;;;;4995252;28;99131;-74
2023/08/20 12:59:17;;;;;;;5.07;1.40;;;;;;;;;;4989692;28;98827;-74
2023/08/20 13:01:43;;;;;;;5.28;1.50;;;;;;;;;;4988579;28;98657;-74
2023/08/20 13:04:09;;;;;;;5.05;1.30;;;;;;;;;;4984197;28;99120;-73
2023/08/20 13:06:37;;;;;;;4.93;1.20;;;;;;;;;;4993479;28;100239;-76
2023/08/20 13:09:03;;;;;;;3.17;1.00;;;;;;;;;;4991056;28;98518;-74
2023/08/20 13:11:30;;;;;;;7.78;1.52;;;;;;;;;;4994871;28;100258;-74
2023/08/20 13:13:57;;;;;;;5.32;1.48;;;;;;;;;;4987820;28;99629;-74
2023/08/20 13:16:23;;;;;;;2.45;0.82;;;;;;;;;;4990441;28;99457;-74
2023/08/20 13:18:50;;;;;;;8.13;1.25;;;;;;;;;;4984170;28;99427;-74
2023/08/20 13:21:16;;;;;;;6.60;1.48;;;;;;;;;;4997723;28;99989;-74
2023/08/20 13:23:44;;;;;;;7.57;1.48;;;;;;;;;;4982528;28;99394;-74
2023/08/20 13:26:10;;;;;;;4.03;1.20;;;;;;;;;;4992883;28;99493;-73
2023/08/20 13:28:37;;;;;;;4.85;1.52;;;;;;;;;;4987902;28;98529;-74
2023/08/20 13:31:03;;;;;;;6.65;0.98;;;;;;;;;;4987786;28;99402;-74
2023/08/20 13:33:29;;;;;;;4.03;1.20;;;;;;;;;;4992495;28;99474;-74
2023/08/20 13:35:57;;;;;;;4.43;1.30;;;;;;;;;;4982018;28;99060;-74
2023/08/20 13:38:25;;;;;;;6.53;1.30;;;;;;;;;;4987132;28;100228;-74
2023/08/20 13:40:51;;;;;;;6.93;1.30;;;;;;;;;;4987359;28;98635;-74
2023/08/20 13:43:18;;;;;;;7.55;1.85;;;;;;;;;;4990525;28;99554;-74
2023/08/20 13:45:45;;;;;;;6.32;1.75;;;;;;;;;;4985481;28;99675;-73
2023/08/20 13:48:11;;;;;;;4.05;1.30;;;;;;;;;;4990197;28;97767;-74
2023/08/20 13:50:37;;;;;;;5.95;1.35;;;;;;;;;;4989698;28;98814;-74
2023/08/20 13:53:04;;;;;;;7.63;1.63;;;;;;;;;;4984626;28;99980;-75
2023/08/20 13:55:31;;;;;;;7.18;1.35;;;;;;;;;;4985739;28;99368;-73
2023/08/20 13:57:57;;;;;;;5.55;1.30;;;;;;;;;;4988239;28;99790;-73
2023/08/20 14:00:24;;;;;;;6.80;1.45;;;;;;;;;;4990499;28;98461;-75
2023/08/20 14:02:50;;;;;;;9.00;1.67;;;;;;;;;;4989803;28;99586;-73
2023/08/20 14:05:18;;;;;;;5.55;1.50;;;;;;;;;;4996736;28;98837;-75
2023/08/20 14:07:44;;;;;;;6.68;1.50;;;;;;;;;;4978220;28;98819;-73
2023/08/20 14:10:11;;;;;;;8.38;1.40;;;;;;;;;;4987037;28;99187;-73
2023/08/20 14:12:37;;;;;;;6.22;1.75;;;;;;;;;;4986057;28;98675;-75
2023/08/20 14:15:07;;;;;;;5.40;1.40;;;;;;;;;;4983708;28;99665;-75
2023/08/20 14:17:33;;;;;;;7.80;1.55;;;;;;;;;;4994529;28;99162;-76
2023/08/20 14:19:59;;;;;;;3.22;1.20;;;;;;;;;;4988537;28;99373;-76
2023/08/20 14:22:26;;;;;;;5.25;1.63;;;;;;;;;;4992148;28;100142;-76
2023/08/20 14:24:52;;;;;;;7.30;1.40;;;;;;;;;;4992954;28;100547;-76
2023/08/20 14:27:19;;;;;;;6.15;1.52;;;;;;;;;;4983272;28;99852;-76
2023/08/20 14:29:45;;;;;;;5.60;1.52;;;;;;;;;;4989275;28;99108;-75
2023/08/20 14:32:12;;;;;;;7.95;1.73;;;;;;;;;;4988780;28;99499;-75
2023/08/20 14:34:38;;;;;;;6.28;1.33;;;;;;;;;;4992735;28;98972;-77